Time;durP1;ratioP1;P1;durP2;ratioP2;P2;SDS_P1;SDS_P2;PMS_P1;PMS_P2;Temp;Humidity;BMP_temperature;BMP_pressure;BME280_temperature;BME280_humidity;BME280_pressure;Samples;Min_cycle;Max_cycle;Signal;HPM_P1;HPM_P2
2024/04/23 00:00:00;;;;;;;11.55;6.80;;;;;;;2.99;65.44;96753.75;5178717;27;20013;-77
2024/04/23 00:02:26;;;;;;;10.98;6.75;;;;;;;2.95;65.32;96751.59;5179287;27;20015;-77
2024/04/23 00:04:56;;;;;;;17.67;9.40;;;;;;;2.95;65.48;96755.00;5178810;27;20019;-77
2024/04/23 00:07:22;;;;;;;19.23;9.30;;;;;;;2.94;65.18;96748.19;5177953;27;20544;-76
2024/04/23 00:09:52;;;;;;;12.27;7.10;;;;;;;2.95;64.85;96743.84;5178638;27;20403;-77
2024/04/23 00:12:21;;;;;;;13.43;8.00;;;;;;;2.97;66.82;96747.13;5183762;27;20019;-77
2024/04/23 00:14:51;;;;;;;12.13;6.25;;;;;;;3.00;66.16;96744.31;5180548;27;20005;-77
2024/04/23 00:17:18;;;;;;;12.52;6.32;;;;;;;3.03;65.17;96736.28;5178032;27;20008;-77
2024/04/23 00:19:47;;;;;;;9.60;5.50;;;;;;;3.05;65.78;96734.41;5178166;27;20036;-77
2024/04/23 00:22:14;;;;;;;9.50;5.88;;;;;;;3.07;64.98;96732.50;5178252;27;20004;-77
2024/04/23 00:24:43;;;;;;;8.65;5.13;;;;;;;3.04;64.72;96732.75;5178290;27;20004;-77
2024/04/23 00:27:10;;;;;;;7.30;5.30;;;;;;;3.02;64.89;96726.94;5178468;27;20004;-77
2024/04/23 00:29:42;;;;;;;7.35;4.90;;;;;;;3.03;66.04;96731.94;5178209;27;20020;-77
2024/04/23 00:32:08;;;;;;;7.55;4.90;;;;;;;3.05;65.54;96726.66;5179169;27;20008;-77
2024/04/23 00:34:38;;;;;;;6.55;5.05;;;;;;;3.09;66.33;96717.72;5178824;27;20080;-77
2024/04/23 00:37:05;;;;;;;5.35;4.70;;;;;;;3.09;65.21;96722.88;5178927;27;20012;-78
2024/04/23 00:39:34;;;;;;;6.47;4.85;;;;;;;3.06;64.53;96715.41;5178250;27;20015;-77
2024/04/23 00:42:01;;;;;;;8.18;5.13;;;;;;;3.01;65.23;96712.41;5178259;27;20019;-77
2024/04/23 00:44:30;;;;;;;6.90;5.20;;;;;;;3.02;66.91;96714.06;5177904;27;20004;-77
2024/04/23 00:46:59;;;;;;;6.70;5.45;;;;;;;3.08;68.42;96718.66;5177499;27;20004;-77
2024/04/23 00:49:29;;;;;;;6.65;5.30;;;;;;;3.14;67.44;96707.03;5177977;27;20008;-77
2024/04/23 00:51:56;;;;;;;8.43;5.10;;;;;;;3.15;67.32;96706.06;5177971;27;20004;-77
2024/04/23 00:54:28;;;;;;;6.07;4.43;;;;;;;3.13;65.49;96707.97;5177617;27;20019;-77
2024/04/23 00:56:57;;;;;;;6.25;5.20;;;;;;;3.04;65.22;96702.66;5177085;27;20009;-76
2024/04/23 00:59:28;;;;;;;8.02;5.05;;;;;;;3.01;66.05;96704.69;5177527;27;20019;-77
2024/04/23 01:01:56;;;;;;;5.68;4.75;;;;;;;3.06;67.84;96705.09;5177725;27;20008;-77
2024/04/23 01:04:31;;;;;;;6.60;5.25;;;;;;;3.11;67.81;96702.16;5179222;27;20092;-77
2024/04/23 01:06:58;;;;;;;5.60;4.25;;;;;;;3.09;65.54;96710.81;5177276;27;20381;-76
2024/04/23 01:09:27;;;;;;;6.03;4.63;;;;;;;3.01;65.86;96697.75;5177426;27;20004;-76
2024/04/23 01:11:54;;;;;;;6.55;4.95;;;;;;;2.99;66.33;96704.81;5177627;27;20009;-77
2024/04/23 01:14:24;;;;;;;6.22;4.38;;;;;;;2.99;66.22;96694.50;5178127;27;20004;-77
2024/04/23 01:16:51;;;;;;;5.50;4.57;;;;;;;2.98;66.40;96702.38;5180054;27;20357;-76
2024/04/23 01:19:27;;;;;;;5.80;4.53;;;;;;;2.95;66.52;96706.03;5180083;27;20016;-77
2024/04/23 01:22:02;;;;;;;8.73;5.13;;;;;;;2.96;64.75;96706.84;5180308;27;20008;-77
2024/04/23 01:24:36;;;;;;;7.75;5.63;;;;;;;2.95;65.79;96705.22;5180748;27;20374;-76
2024/04/23 01:27:06;;;;;;;6.55;5.65;;;;;;;2.93;66.13;96707.94;5179892;27;20008;-76
2024/04/23 01:29:36;;;;;;;6.60;5.07;;;;;;;2.96;66.27;96704.28;5180641;27;20024;-76
2024/04/23 01:32:04;;;;;;;5.63;4.78;;;;;;;2.95;64.91;96705.22;5180313;27;20012;-77
2024/04/23 01:34:35;;;;;;;7.88;5.25;;;;;;;2.92;64.33;96703.72;5180183;27;20019;-77
2024/04/23 01:37:04;;;;;;;7.43;5.43;;;;;;;2.91;65.03;96707.25;5179763;27;20083;-77
2024/04/23 01:39:34;;;;;;;8.43;6.32;;;;;;;2.95;66.44;96712.94;5180166;27;20020;-77
2024/04/23 01:42:02;;;;;;;5.82;4.80;;;;;;;2.97;65.28;96711.84;5180462;27;20005;-77
2024/04/23 01:44:34;;;;;;;6.07;4.80;;;;;;;2.96;65.23;96707.66;5180412;27;20008;-77
2024/04/23 01:47:01;;;;;;;7.13;4.97;;;;;;;2.95;65.77;96708.63;5179759;27;20000;-77
2024/04/23 01:49:31;;;;;;;6.40;5.15;;;;;;;2.99;66.26;96704.81;5179939;27;20012;-77
2024/04/23 01:51:58;;;;;;;6.55;5.25;;;;;;;3.01;66.84;96707.25;5180160;27;20004;-76
2024/04/23 01:54:27;;;;;;;5.15;4.35;;;;;;;3.02;65.77;96708.91;5180065;27;20473;-76
2024/04/23 01:56:54;;;;;;;7.10;5.30;;;;;;;2.94;64.74;96706.97;5185547;27;20000;-77
2024/04/23 01:59:24;;;;;;;6.75;4.72;;;;;;;2.88;64.47;96698.00;5200395;27;20004;-77
2024/04/23 02:01:56;;;;;;;7.15;5.35;;;;;;;2.86;65.23;96707.66;5197931;27;20008;-77
2024/04/23 02:04:27;;;;;;;6.50;4.95;;;;;;;2.87;64.92;96706.69;5181084;27;20015;-77
2024/04/23 02:06:53;;;;;;;6.40;5.25;;;;;;;2.87;63.95;96705.88;5179744;27;20011;-77
2024/04/23 02:09:24;;;;;;;5.40;4.60;;;;;;;2.85;64.27;96700.84;5180190;27;20004;-77
2024/04/23 02:11:54;;;;;;;6.50;5.38;;;;;;;2.83;63.88;96704.50;5179848;27;20480;-77
2024/04/23 02:14:23;;;;;;;8.77;5.22;;;;;;;2.79;63.22;96697.97;5180274;27;20001;-77
2024/04/23 02:16:50;;;;;;;6.93;5.22;;;;;;;2.74;63.64;96695.78;5179306;27;20011;-77
2024/04/23 02:19:22;;;;;;;8.45;6.05;;;;;;;2.73;65.89;96696.72;5179634;27;20052;-77
2024/04/23 02:21:49;;;;;;;8.48;5.60;;;;;;;2.75;65.02;96689.69;5180546;27;20015;-77
2024/04/23 02:24:18;;;;;;;8.55;6.05;;;;;;;2.79;65.53;96693.63;5180191;27;20015;-77
2024/04/23 02:26:45;;;;;;;12.63;6.03;;;;;;;2.85;65.96;96687.97;5178189;27;20017;-77
2024/04/23 02:29:14;;;;;;;9.20;5.85;;;;;;;2.87;66.35;96691.22;5179694;27;20360;-77
2024/04/23 02:31:41;;;;;;;7.55;6.00;;;;;;;2.91;66.82;96693.53;5179813;27;20004;-77
2024/04/23 02:34:11;;;;;;;5.60;5.00;;;;;;;2.89;65.24;96684.19;5179560;27;20017;-76
2024/04/23 02:36:40;;;;;;;5.85;5.22;;;;;;;2.88;66.51;96687.69;5179039;27;20004;-77
2024/04/23 02:39:09;;;;;;;9.75;5.78;;;;;;;2.91;65.44;96685.78;5184586;27;20004;-76
2024/04/23 02:41:46;;;;;;;7.38;5.55;;;;;;;2.93;66.60;96677.00;5179260;27;20040;-77
2024/04/23 02:44:15;;;;;;;6.38;5.07;;;;;;;2.94;64.80;96675.25;5179832;27;20325;-77
2024/04/23 02:46:42;;;;;;;8.40;6.40;;;;;;;2.91;64.72;96667.75;5178775;27;20004;-77
2024/04/23 02:49:11;;;;;;;7.50;5.82;;;;;;;2.87;65.70;96662.88;5179619;27;20020;-77
2024/04/23 02:51:48;;;;;;;8.02;5.65;;;;;;;2.87;65.32;96662.88;5179059;27;20009;-77
2024/04/23 02:54:18;;;;;;;6.32;5.43;;;;;;;2.84;64.68;96659.75;5179220;27;20000;-77
2024/04/23 02:56:47;;;;;;;9.27;5.38;;;;;;;2.78;63.47;96663.69;5178950;27;20008;-77
2024/04/23 02:59:16;;;;;;;6.85;5.13;;;;;;;2.66;63.01;96654.41;5179371;27;20349;-77
2024/04/23 03:01:46;;;;;;;10.70;5.78;;;;;;;2.58;63.99;96661.97;5179523;27;20004;-77
2024/04/23 03:04:13;;;;;;;8.90;5.20;;;;;;;2.51;63.44;96645.41;5179105;27;20080;-77
2024/04/23 03:06:42;;;;;;;11.10;6.00;;;;;;;2.40;63.02;96648.91;5179053;27;20016;-77
2024/04/23 03:09:11;;;;;;;6.53;5.20;;;;;;;2.33;63.24;96651.19;5178981;27;20020;-77
2024/04/23 03:11:41;;;;;;;9.85;6.15;;;;;;;2.28;63.37;96643.03;5179117;27;20005;-76
2024/04/23 03:14:07;;;;;;;10.30;5.60;;;;;;;2.23;63.14;96640.00;5178842;27;20008;-77
2024/04/23 03:16:37;;;;;;;10.68;5.78;;;;;;;2.19;63.19;96634.31;5202838;22;20008;-73
2024/04/23 03:19:04;;;;;;;8.50;5.38;;;;;;;2.14;63.04;96641.59;5212728;27;20043;-73
2024/04/23 03:21:33;;;;;;;9.93;6.00;;;;;;;2.12;63.14;96634.97;5212437;27;20019;-73
2024/04/23 03:24:00;;;;;;;6.93;5.28;;;;;;;2.09;63.05;96640.38;5212757;27;20456;-73
2024/04/23 03:26:31;;;;;;;7.20;5.18;;;;;;;2.03;63.59;96631.38;5212386;27;20003;-73
2024/04/23 03:28:58;;;;;;;7.87;5.93;;;;;;;2.00;64.37;96631.66;5212722;27;20008;-73
2024/04/23 03:31:27;;;;;;;8.27;5.57;;;;;;;2.01;64.02;96631.53;5212721;27;20244;-73
2024/04/23 03:33:54;;;;;;;7.95;5.85;;;;;;;2.01;63.81;96630.69;5212696;27;20004;-73
2024/04/23 03:36:23;;;;;;;9.75;6.13;;;;;;;2.01;64.52;96630.69;5211896;27;20356;-74
2024/04/23 03:38:53;;;;;;;11.20;6.30;;;;;;;2.04;64.02;96635.63;5212226;27;20003;-73
2024/04/23 03:41:22;;;;;;;7.82;6.40;;;;;;;2.04;64.90;96639.00;5212161;27;20012;-73
2024/04/23 03:43:54;;;;;;;11.52;6.40;;;;;;;2.08;67.36;96642.13;5212656;27;20015;-73
2024/04/23 03:46:23;;;;;;;9.25;6.80;;;;;;;2.15;67.49;96637.28;5211306;27;20412;-73
2024/04/23 03:48:53;;;;;;;7.95;6.15;;;;;;;2.21;67.08;96637.59;5212422;27;20008;-74
2024/04/23 03:51:19;;;;;;;11.50;6.18;;;;;;;2.24;65.80;96646.81;5211829;27;20048;-73
2024/04/23 03:53:49;;;;;;;10.35;5.72;;;;;;;2.23;65.31;96645.16;5212038;27;20109;-73
2024/04/23 03:56:15;;;;;;;10.77;6.30;;;;;;;2.19;65.77;96633.53;5229051;27;19996;-73
2024/04/23 03:58:44;;;;;;;9.20;6.05;;;;;;;2.16;65.30;96644.06;5232535;27;20007;-73
2024/04/23 04:01:14;;;;;;;8.77;6.20;;;;;;;2.08;65.42;96641.28;5225511;27;20044;-73
2024/04/23 04:06:29;;;;;;;10.85;6.38;;;;;;;1.98;64.67;96642.06;5211755;27;20011;-73
2024/04/23 04:08:58;;;;;;;9.38;6.35;;;;;;;1.96;66.00;96638.00;5212344;27;20483;-73
2024/04/23 04:11:32;;;;;;;10.63;7.15;;;;;;;1.95;65.55;96634.63;5212037;27;20020;-73
2024/04/23 04:13:59;;;;;;;9.90;6.90;;;;;;;1.91;65.67;96637.56;5212116;27;20008;-73
2024/04/23 04:16:32;;;;;;;12.07;7.22;;;;;;;1.87;65.69;96634.44;5211443;27;20511;-74
2024/04/23 04:19:01;;;;;;;9.10;6.40;;;;;;;1.84;65.95;96643.22;5211377;27;20019;-73
2024/04/23 04:21:31;;;;;;;12.90;7.65;;;;;;;1.84;65.88;96650.94;5211428;27;20000;-73
2024/04/23 04:23:58;;;;;;;13.95;7.07;;;;;;;1.80;65.81;96648.75;5211364;27;20011;-73
2024/04/23 04:26:27;;;;;;;16.05;9.18;;;;;;;1.83;66.33;96651.06;5210678;27;20000;-73
2024/04/23 04:28:54;;;;;;;12.50;7.90;;;;;;;1.85;66.86;96649.16;5211167;27;20004;-73
2024/04/23 04:31:23;;;;;;;15.25;7.65;;;;;;;1.90;67.46;96659.06;5211258;27;20031;-73
2024/04/23 04:33:52;;;;;;;9.85;7.28;;;;;;;1.95;67.97;96647.47;5211640;27;20077;-73
2024/04/23 04:36:22;;;;;;;11.52;7.25;;;;;;;1.98;66.68;96652.34;5211111;27;20004;-73
2024/04/23 04:38:48;;;;;;;11.88;7.20;;;;;;;1.98;66.11;96651.56;5211925;27;20007;-73
2024/04/23 04:41:18;;;;;;;16.25;7.97;;;;;;;1.98;66.12;96652.34;5211800;27;20019;-73
2024/04/23 04:43:44;;;;;;;15.80;6.85;;;;;;;1.97;66.08;96655.88;5213842;27;20003;-74
2024/04/23 04:46:14;;;;;;;15.55;8.40;;;;;;;1.99;67.05;96659.16;5211621;27;20419;-73
2024/04/23 04:48:40;;;;;;;13.48;6.85;;;;;;;2.04;66.32;96657.00;5211162;27;20007;-73
2024/04/23 04:51:13;;;;;;;9.73;6.82;;;;;;;2.06;66.89;96655.13;5210874;27;20350;-73
2024/04/23 04:53:39;;;;;;;9.43;4.90;;;;;;;2.12;66.69;96653.81;5211595;27;20004;-74
2024/04/23 04:56:09;;;;;;;10.52;6.70;;;;;;;2.17;66.76;96656.00;5211789;27;20015;-73
2024/04/23 04:58:36;;;;;;;9.95;6.35;;;;;;;2.21;65.85;96662.53;5212820;27;20003;-73
2024/04/23 05:01:06;;;;;;;10.43;8.20;;;;;;;2.23;66.21;96655.47;5213706;27;20003;-73
2024/04/23 05:03:33;;;;;;;10.60;7.03;;;;;;;2.23;65.81;96661.44;5212600;27;20027;-73
2024/04/23 05:06:02;;;;;;;11.60;7.40;;;;;;;2.24;65.68;96657.09;5213230;27;20004;-75
2024/04/23 05:08:32;;;;;;;17.95;7.55;;;;;;;2.29;66.74;96654.94;5214249;27;20018;-73
2024/04/23 05:11:01;;;;;;;13.07;6.40;;;;;;;2.35;66.42;96658.78;5212976;27;20007;-73
2024/04/23 05:13:28;;;;;;;12.88;7.43;;;;;;;2.41;67.08;96664.22;5212217;27;20015;-73
2024/04/23 05:15:57;;;;;;;17.80;7.15;;;;;;;2.47;66.92;96661.16;5211935;27;20032;-73
2024/04/23 05:18:24;;;;;;;15.25;7.53;;;;;;;2.51;67.19;96653.16;5213235;27;20004;-73
2024/04/23 05:20:53;;;;;;;15.38;6.78;;;;;;;2.57;67.05;96650.06;5213755;27;20046;-73
2024/04/23 05:23:20;;;;;;;9.05;6.72;;;;;;;2.62;66.73;96658.19;5212691;27;20012;-73
2024/04/23 05:25:52;;;;;;;12.15;6.50;;;;;;;2.68;67.42;96650.75;5210516;27;20015;-73
2024/04/23 05:28:18;;;;;;;9.23;7.03;;;;;;;2.74;67.82;96653.78;5210579;27;20464;-73
2024/04/23 05:33:33;;;;;;;9.88;7.18;;;;;;;2.85;66.02;96649.31;5211075;27;20456;-73
2024/04/23 05:36:03;;;;;;;7.85;5.80;;;;;;;2.88;65.25;96651.63;5210634;27;20045;-73
2024/04/23 05:38:32;;;;;;;13.52;6.47;;;;;;;2.92;66.98;96646.22;5209661;27;20000;-73
2024/04/23 05:41:04;;;;;;;6.75;5.95;;;;;;;2.98;64.88;96651.66;5211014;27;20004;-73
2024/04/23 05:43:34;;;;;;;13.13;6.28;;;;;;;2.99;64.61;96653.28;5210993;27;20040;-73
2024/04/23 05:46:03;;;;;;;9.48;6.55;;;;;;;3.01;65.41;96651.38;5210797;27;20014;-73
2024/04/23 05:49:10;;;;;;;9.77;5.97;;;;;;;3.08;63.32;96651.66;5210997;27;20018;-73
2024/04/23 05:52:17;;;;;;;8.95;5.85;;;;;;;3.12;64.65;96655.59;5210476;27;20004;-73
2024/04/23 05:55:32;;;;;;;8.25;5.95;;;;;;;3.20;66.03;96650.59;5211959;27;20007;-73
2024/04/23 05:58:02;;;;;;;11.02;5.32;;;;;;;3.27;63.86;96656.03;5221953;27;20015;-73
2024/04/23 06:00:31;;;;;;;8.45;6.05;;;;;;;3.36;64.75;96659.56;5219014;27;20018;-73
2024/04/23 06:02:58;;;;;;;10.98;5.60;;;;;;;3.45;64.10;96654.38;5216664;27;20468;-73
2024/04/23 06:05:28;;;;;;;10.80;6.03;;;;;;;3.52;62.67;96662.44;5213536;27;20515;-73
2024/04/23 06:07:57;;;;;;;11.43;5.60;;;;;;;3.54;61.82;96660.50;5213216;27;20004;-73
2024/04/23 06:10:26;;;;;;;7.13;5.55;;;;;;;3.54;61.58;96651.97;5213116;27;20007;-73
2024/04/23 06:12:56;;;;;;;8.57;5.07;;;;;;;3.57;61.05;96657.66;5212932;27;20008;-73
2024/04/23 06:15:25;;;;;;;5.80;4.72;;;;;;;3.58;60.52;96664.44;5212779;27;20494;-73
2024/04/23 06:17:55;;;;;;;8.18;6.00;;;;;;;3.61;62.10;96673.69;5213055;27;20023;-73
2024/04/23 06:20:21;;;;;;;6.47;5.85;;;;;;;3.64;60.80;96668.25;5212903;27;20479;-73
2024/04/23 06:22:52;;;;;;;7.50;5.43;;;;;;;3.65;60.55;96665.53;5212912;27;20040;-73
2024/04/23 06:25:20;;;;;;;7.18;5.68;;;;;;;3.67;60.31;96663.66;5218752;27;20011;-73
2024/04/23 06:27:49;;;;;;;5.90;4.60;;;;;;;3.70;60.25;96662.56;5213109;27;20015;-73
2024/04/23 06:30:16;;;;;;;6.10;4.75;;;;;;;3.70;59.78;96658.19;5213442;27;20088;-73
2024/04/23 06:32:48;;;;;;;6.57;5.43;;;;;;;3.67;60.69;96655.91;5213353;27;20015;-73
2024/04/23 06:35:15;;;;;;;;;;;;;;;3.71;60.07;96654.66;5214190;27;20000;-73
2024/04/23 06:37:45;;;;;;;6.95;5.13;;;;;;;3.71;60.38;96662.38;5212907;27;20376;-73
2024/04/23 06:40:12;;;;;;;8.20;5.32;;;;;;;3.67;59.89;96650.75;5213214;27;20004;-74
2024/04/23 06:42:41;;;;;;;7.13;5.07;;;;;;;3.68;59.76;96657.53;5213329;27;20007;-73
2024/04/23 06:45:08;;;;;;;9.07;5.47;;;;;;;3.71;59.69;96652.06;5213128;27;20333;-73
2024/04/23 06:47:37;;;;;;;9.38;5.15;;;;;;;3.77;59.11;96648.13;5212680;27;20004;-73
2024/04/23 06:50:07;;;;;;;8.25;5.28;;;;;;;3.83;59.97;96654.53;5212803;27;20014;-74
2024/04/23 06:52:36;;;;;;;7.65;5.20;;;;;;;3.87;59.48;96648.09;5212771;27;20468;-74
2024/04/23 06:55:04;;;;;;;9.27;5.40;;;;;;;3.89;58.91;96651.38;5217782;27;20024;-73
2024/04/23 06:57:33;;;;;;;6.82;5.28;;;;;;;3.92;59.01;96651.09;5232545;27;20014;-73
2024/04/23 07:00:00;;;;;;;8.60;5.43;;;;;;;3.97;58.91;96643.75;5226437;27;20007;-75
2024/04/23 07:02:29;;;;;;;6.85;5.10;;;;;;;4.06;58.63;96647.25;5229631;27;20011;-74
2024/04/23 07:04:56;;;;;;;7.03;5.40;;;;;;;4.13;58.21;96644.00;5227462;27;20008;-74
2024/04/23 07:07:28;;;;;;;7.15;5.55;;;;;;;4.12;57.38;96644.94;5215545;27;20079;-74
2024/04/23 07:09:56;;;;;;;13.27;5.22;;;;;;;4.12;57.88;96647.53;5214196;27;20018;-74
2024/04/23 07:12:25;;;;;;;7.93;4.97;;;;;;;4.18;57.62;96646.16;5212808;27;20003;-74
2024/04/23 07:14:53;;;;;;;6.82;5.15;;;;;;;4.26;57.82;96642.84;5213664;27;20207;-74
2024/04/23 07:17:22;;;;;;;7.85;5.22;;;;;;;4.27;57.31;96637.56;5212588;27;20019;-74
2024/04/23 07:19:49;;;;;;;8.15;5.72;;;;;;;4.33;57.34;96641.34;5212311;27;20039;-74
2024/04/23 07:22:20;;;;;;;7.47;5.20;;;;;;;4.35;57.47;96639.41;5213023;27;20004;-74
2024/04/23 07:24:50;;;;;;;8.68;5.10;;;;;;;4.47;57.37;96642.66;5213511;27;20014;-74
2024/04/23 07:27:19;;;;;;;7.82;5.70;;;;;;;4.60;57.45;96632.00;5213384;27;20690;-74
2024/04/23 07:29:46;;;;;;;7.28;5.60;;;;;;;4.77;57.17;96635.56;5212518;27;20015;-74
2024/04/23 07:32:17;;;;;;;8.70;5.50;;;;;;;4.85;56.38;96633.88;5212230;27;20004;-74
2024/04/23 07:34:44;;;;;;;8.20;5.43;;;;;;;4.97;56.55;96633.69;5212198;27;20004;-74
2024/04/23 07:37:14;;;;;;;7.05;4.78;;;;;;;5.05;56.23;96634.59;5211687;27;20019;-74
2024/04/23 07:39:41;;;;;;;5.40;4.90;;;;;;;5.16;56.06;96625.81;5212018;27;20007;-74
2024/04/23 07:42:13;;;;;;;8.07;6.22;;;;;;;5.31;55.72;96633.84;5228657;27;20347;-74
2024/04/23 07:44:40;;;;;;;5.93;5.23;;;;;;;5.50;55.95;96632.91;5231871;27;20000;-74
2024/04/23 07:47:09;;;;;;;7.95;5.35;;;;;;;5.63;55.60;96627.34;5225121;27;20452;-74
2024/04/23 07:49:38;;;;;;;6.97;4.72;;;;;;;5.75;55.22;96633.88;5214997;27;20044;-74
2024/04/23 07:52:07;;;;;;;9.10;5.55;;;;;;;5.85;55.18;96631.22;5231429;27;20004;-74
2024/04/23 07:54:34;;;;;;;7.45;5.45;;;;;;;5.93;54.59;96628.69;5228067;27;20468;-75
2024/04/23 07:57:03;;;;;;;8.95;5.95;;;;;;;5.95;54.95;96632.78;5222929;27;20394;-74
2024/04/23 07:59:33;;;;;;;11.82;5.53;;;;;;;6.11;54.60;96634.66;5216290;27;20341;-74
2024/04/23 08:02:02;;;;;;;7.30;5.15;;;;;;;6.31;54.96;96629.28;5214972;27;20023;-74
2024/04/23 08:04:29;;;;;;;6.88;4.63;;;;;;;6.49;54.46;96622.22;5212757;27;20004;-74
2024/04/23 08:06:58;;;;;;;6.65;4.78;;;;;;;6.70;54.10;96631.38;5211362;27;20004;-74
2024/04/23 08:09:25;;;;;;;5.05;4.50;;;;;;;6.76;53.19;96625.59;5211313;27;20018;-74
2024/04/23 08:11:54;;;;;;;7.70;4.63;;;;;;;6.85;53.27;96616.06;5211844;27;20004;-74
2024/04/23 08:14:21;;;;;;;7.57;4.70;;;;;;;7.03;53.44;96614.13;5211529;27;20039;-74
2024/04/23 08:16:53;;;;;;;7.32;4.95;;;;;;;7.23;52.29;96610.28;5211241;27;20014;-74
2024/04/23 08:19:20;;;;;;;5.65;4.57;;;;;;;7.45;52.33;96609.81;5212012;27;20019;-74
2024/04/23 08:21:49;;;;;;;8.48;5.60;;;;;;;7.58;52.22;96613.53;5211701;27;20472;-74
2024/04/23 08:24:16;;;;;;;6.75;4.88;;;;;;;7.53;51.25;96612.41;5211173;27;20007;-75
2024/04/23 08:26:45;;;;;;;5.50;4.68;;;;;;;7.49;51.45;96613.72;5210721;27;20004;-74
2024/04/23 08:29:12;;;;;;;5.75;4.72;;;;;;;7.53;51.42;96607.22;5211296;27;20004;-74
2024/04/23 08:31:41;;;;;;;6.72;4.82;;;;;;;7.60;51.16;96613.38;5211256;27;20011;-74
2024/04/23 08:34:13;;;;;;;5.45;4.68;;;;;;;7.62;50.00;96606.25;5211521;27;20004;-74
2024/04/23 08:36:40;;;;;;;6.05;4.15;;;;;;;7.67;51.97;96606.56;5210821;27;20480;-74
2024/04/23 08:39:09;;;;;;;5.57;4.57;;;;;;;7.74;51.18;96604.13;5210526;27;20022;-75
2024/04/23 08:41:39;;;;;;;8.38;5.00;;;;;;;7.74;50.10;96599.75;5210213;27;20356;-74
2024/04/23 08:44:10;;;;;;;6.78;5.55;;;;;;;7.74;50.31;96602.34;5210824;27;20464;-75
2024/04/23 08:46:39;;;;;;;5.65;5.00;;;;;;;7.84;50.42;96600.38;5210593;27;20019;-74
2024/04/23 08:49:10;;;;;;;7.10;5.07;;;;;;;7.96;50.39;96587.03;5211034;27;20020;-74
2024/04/23 08:51:39;;;;;;;7.40;5.30;;;;;;;8.12;49.48;96592.22;5211203;27;20431;-74
2024/04/23 08:54:09;;;;;;;5.13;4.20;;;;;;;8.32;50.54;96584.84;5211307;27;20004;-74
2024/04/23 08:56:43;;;;;;;5.97;4.40;;;;;;;8.52;50.14;96590.50;5210538;27;20007;-74
2024/04/23 08:59:16;;;;;;;6.32;4.70;;;;;;;8.69;48.80;96593.84;5211133;27;20055;-74
2024/04/23 09:01:45;;;;;;;;;;;;;;;8.65;47.94;96588.16;5211429;27;20032;-74
2024/04/23 09:04:15;;;;;;;6.07;4.32;;;;;;;8.60;49.74;96582.66;5210495;27;20408;-74
2024/04/23 09:06:45;;;;;;;6.20;5.25;;;;;;;8.69;49.18;96587.84;5210289;27;20012;-74
2024/04/23 09:09:15;;;;;;;7.60;5.68;;;;;;;8.81;48.96;96581.25;5210479;27;20464;-75
2024/04/23 09:11:42;;;;;;;6.70;5.35;;;;;;;8.86;48.55;96584.16;5211143;27;20020;-75
2024/04/23 09:14:14;;;;;;;6.78;4.75;;;;;;;8.97;48.76;96583.78;5210708;27;20028;-75
2024/04/23 09:19:20;;;;;;;6.95;5.65;;;;;;;9.37;48.27;96579.28;5198118;27;20001;-90
2024/04/23 09:21:49;;;;;;;6.78;6.05;;;;;;;9.48;47.14;96576.25;5200462;27;19996;-88
2024/04/23 09:24:26;;;;;;;6.28;4.43;;;;;;;9.62;46.86;96579.91;5200334;27;20058;-89
2024/04/23 09:26:54;;;;;;;9.30;5.35;;;;;;;9.83;47.64;96567.97;5200018;27;20008;-90
2024/04/23 09:29:24;;;;;;;6.30;5.03;;;;;;;10.05;47.08;96572.31;5200225;27;19996;-89
2024/04/23 09:31:51;;;;;;;7.40;5.38;;;;;;;10.21;46.53;96571.34;5200176;27;20046;-88
2024/04/23 09:34:29;;;;;;;6.60;5.38;;;;;;;10.24;45.40;96573.59;5200259;27;20007;-90
2024/04/23 09:37:17;;;;;;;6.90;5.35;;;;;;;10.33;44.71;96570.91;5202377;27;19996;-89
2024/04/23 09:39:47;;;;;;;6.35;5.47;;;;;;;10.27;45.59;96569.78;5203370;27;20012;-89
2024/04/23 09:42:21;;;;;;;5.65;5.03;;;;;;;10.19;44.03;96562.06;5203314;27;19996;-89
2024/04/23 09:44:52;;;;;;;7.63;5.45;;;;;;;10.14;45.13;96562.59;5203551;27;20004;-89
2024/04/23 09:47:19;;;;;;;8.65;5.93;;;;;;;10.14;44.92;96560.00;5202956;27;20033;-89
2024/04/23 09:49:55;;;;;;;6.82;5.15;;;;;;;10.18;45.13;96560.47;5203322;27;19997;-89
2024/04/23 09:52:31;;;;;;;7.00;5.03;;;;;;;10.33;44.76;96555.28;5203635;27;19996;-89
2024/04/23 09:55:02;;;;;;;6.47;4.85;;;;;;;10.39;44.85;96547.53;5203185;27;19998;-89
2024/04/23 09:57:29;;;;;;;6.03;5.00;;;;;;;10.35;44.73;96543.66;5202760;27;20004;-90
2024/04/23 09:59:59;;;;;;;7.88;6.00;;;;;;;10.29;44.32;96544.38;5203152;27;20023;-89
2024/04/23 10:02:28;;;;;;;7.38;5.28;;;;;;;10.24;44.36;96539.69;5203045;27;20000;-89
2024/04/23 10:05:05;;;;;;;6.80;5.07;;;;;;;10.20;43.41;96545.44;5203147;27;20013;-88
2024/04/23 10:07:44;;;;;;;7.05;5.15;;;;;;;10.12;43.13;96546.34;5202834;27;20016;-88
2024/04/23 10:10:18;;;;;;;7.05;4.90;;;;;;;9.95;43.81;96540.50;5203061;27;19997;-89
2024/04/23 10:12:53;;;;;;;8.65;4.97;;;;;;;9.82;43.65;96546.34;5203056;27;20003;-89
2024/04/23 10:15:31;;;;;;;6.15;5.55;;;;;;;9.69;43.51;96530.50;5202825;27;20013;-89
2024/04/23 10:18:05;;;;;;;8.00;5.00;;;;;;;9.57;43.61;96524.91;5202525;27;20000;-89
2024/04/23 10:20:43;;;;;;;8.65;5.28;;;;;;;9.59;44.10;96516.94;5202903;27;19996;-89
2024/04/23 10:23:17;;;;;;;5.70;4.72;;;;;;;9.60;43.69;96527.19;5203208;27;19996;-89
2024/04/23 10:25:47;;;;;;;6.05;5.13;;;;;;;9.59;44.36;96522.13;5202576;27;20016;-89
2024/04/23 10:28:15;;;;;;;10.63;5.03;;;;;;;9.59;44.19;96527.34;5202728;27;20004;-88
2024/04/23 10:30:44;;;;;;;6.13;4.90;;;;;;;9.60;45.13;96528.94;5202911;27;20017;-90
2024/04/23 10:33:14;;;;;;;8.70;5.50;;;;;;;9.66;44.54;96531.69;5202658;27;19997;-88
2024/04/23 10:35:46;;;;;;;7.43;5.28;;;;;;;9.68;44.61;96529.69;5202611;27;20000;-89
2024/04/23 10:38:19;;;;;;;6.43;5.38;;;;;;;9.67;43.89;96520.25;5202469;27;20003;-91
2024/04/23 10:40:50;;;;;;;9.23;5.53;;;;;;;9.60;43.87;96526.34;5202641;27;20000;-90
2024/04/23 10:43:26;;;;;;;7.90;4.68;;;;;;;9.51;44.27;96519.59;5202555;27;20019;-89
2024/04/23 10:45:56;;;;;;;7.82;5.35;;;;;;;9.45;44.06;96521.13;5202150;27;19996;-90
2024/04/23 10:48:26;;;;;;;8.30;5.18;;;;;;;9.36;43.28;96522.16;5201190;27;20424;-89
2024/04/23 10:50:59;;;;;;;6.55;5.40;;;;;;;9.30;43.77;96517.69;5202389;27;20033;-89
2024/04/23 10:53:29;;;;;;;6.43;4.88;;;;;;;9.23;43.80;96512.38;5202432;27;19999;-89
2024/04/23 10:55:59;;;;;;;6.93;5.68;;;;;;;9.22;44.57;96515.94;5202171;27;20001;-89
2024/04/23 10:58:26;;;;;;;9.10;4.80;;;;;;;9.20;44.61;96499.69;5202282;27;20005;-88
2024/04/23 11:01:03;;;;;;;5.20;4.70;;;;;;;9.27;45.58;96501.44;5202121;27;20000;-89
2024/04/23 11:03:34;;;;;;;5.78;4.95;;;;;;;9.36;44.36;96503.94;5202413;27;20000;-89
2024/04/23 11:06:04;;;;;;;5.55;4.57;;;;;;;9.42;44.56;96501.47;5202069;27;20011;-89
2024/04/23 11:08:37;;;;;;;6.13;5.22;;;;;;;9.47;43.99;96499.13;5202152;27;19997;-89
2024/04/23 11:11:09;;;;;;;9.68;5.13;;;;;;;9.54;43.85;96493.22;5202293;27;20008;-89
2024/04/23 11:13:38;;;;;;;6.85;5.00;;;;;;;9.54;43.98;96490.63;5202258;27;19997;-90
2024/04/23 11:16:16;;;;;;;6.95;4.70;;;;;;;9.53;43.21;96491.59;5201776;27;19993;-90
2024/04/23 11:18:45;;;;;;;8.20;4.97;;;;;;;9.53;43.47;96491.59;5201885;27;20000;-89
2024/04/23 11:21:26;;;;;;;5.82;4.72;;;;;;;9.46;43.73;96481.88;5201993;27;20012;-90
2024/04/23 11:24:01;;;;;;;7.40;4.82;;;;;;;9.39;43.83;96480.97;5202071;27;19999;-89
2024/04/23 11:26:29;;;;;;;7.20;5.80;;;;;;;9.34;44.13;96480.72;5201707;27;19996;-88
2024/04/23 11:29:00;;;;;;;7.00;5.47;;;;;;;9.26;44.12;96476.38;5201864;27;19996;-88
2024/04/23 11:31:27;;;;;;;7.70;5.03;;;;;;;9.20;44.46;96473.66;5202040;27;20023;-89
2024/04/23 11:33:57;;;;;;;6.13;4.75;;;;;;;9.15;44.47;96473.41;5201990;27;19996;-89
2024/04/23 11:36:25;;;;;;;7.05;5.28;;;;;;;9.12;44.62;96476.31;5201496;27;20001;-89
2024/04/23 11:39:00;;;;;;;10.38;6.05;;;;;;;9.13;44.98;96478.75;5201663;27;19997;-90
2024/04/23 11:41:30;;;;;;;8.80;5.82;;;;;;;9.14;44.15;96471.75;5201740;27;20001;-87
2024/04/23 11:44:01;;;;;;;7.80;5.18;;;;;;;9.11;44.41;96472.91;5201791;27;20020;-89
2024/04/23 11:46:29;;;;;;;7.40;6.03;;;;;;;9.04;44.71;96474.63;5201366;27;19993;-90
2024/04/23 11:49:00;;;;;;;14.02;7.22;;;;;;;8.96;44.44;96469.47;5201610;27;20012;-89
2024/04/23 11:51:27;;;;;;;6.20;5.55;;;;;;;8.94;45.01;96477.44;5201665;27;20000;-90
2024/04/23 11:53:56;;;;;;;8.00;5.85;;;;;;;8.98;46.47;96470.09;5201681;27;20412;-89
2024/04/23 11:56:23;;;;;;;6.32;5.20;;;;;;;9.04;45.52;96469.41;5201214;27;20004;-90
2024/04/23 11:58:55;;;;;;;7.97;5.68;;;;;;;9.04;44.60;96466.81;5200872;27;20004;-89